NCAR-RAP Real-Time Weather Data

Output produced by METARs form (17 November 2017  17:47 UTC)
found at http://weather.rap.ucar.edu/surface/
 
Conditions at: KSPG observed 17 November 2017  16:53 UTC
Temperature: 22.2°C (72°F)
Dewpoint: 13.3°C (56°F) [RH = 57%]
Pressure (altimeter): 30.08 inches Hg (1018.7 mb)
[Sea-level pressure: 1018.7 mb]
Winds: from the ENE (60 degrees) at 7 MPH (6 knots; 3.1 m/s)
Visibility: 10 or more miles (16+ km)
Ceiling: at least 12,000 feet AGL
Clouds: sky clear below 12,000 feet AGL
Present Weather: no significant weather observed at this time
KSPG 171653Z 06006KT 10SM CLR 22/13 A3008 RMK AO2 SLP187 T02220133

Conditions at: KSPG observed 17 November 2017  15:53 UTC
Temperature: 21.1°C (70°F)
Dewpoint: 13.3°C (56°F) [RH = 61%]
Pressure (altimeter): 30.10 inches Hg (1019.4 mb)
[Sea-level pressure: 1019.1 mb]
Winds: from the ENE (60 degrees) at 12 MPH (10 knots; 5.2 m/s)
Visibility: 10 or more miles (16+ km)
Ceiling: at least 12,000 feet AGL
Clouds: sky clear below 12,000 feet AGL
Present Weather: no significant weather observed at this time
KSPG 171553Z 06010KT 10SM CLR 21/13 A3010 RMK AO2 SLP191 T02110133

Conditions at: KSPG observed 17 November 2017  14:53 UTC
Temperature: 20.0°C (68°F)
Dewpoint: 12.8°C (55°F) [RH = 63%]
Pressure (altimeter): 30.10 inches Hg (1019.4 mb)
[Sea-level pressure: 1019.3 mb]
Winds: from the ENE (60 degrees) at 14 MPH (12 knots; 6.2 m/s)
Visibility: 10 or more miles (16+ km)
Ceiling: at least 12,000 feet AGL
Clouds: sky clear below 12,000 feet AGL
Present Weather: no significant weather observed at this time
KSPG 171453Z 06012KT 10SM CLR 20/13 A3010 RMK AO2 SLP193 T02000128 51010

Conditions at: KSPG observed 17 November 2017  13:53 UTC
Temperature: 19.4°C (67°F)
Dewpoint: 12.2°C (54°F) [RH = 63%]
Pressure (altimeter): 30.10 inches Hg (1019.4 mb)
[Sea-level pressure: 1019.1 mb]
Winds: from the ENE (60 degrees) at 15 MPH (13 knots; 6.8 m/s)
Visibility: 10 or more miles (16+ km)
Ceiling: at least 12,000 feet AGL
Clouds: sky clear below 12,000 feet AGL
Present Weather:
SOME DATA ABOVE MAY BE INACCURATE!!!
"$" is an indication the sensor requires maintenance
KSPG 171353Z 06013KT 10SM CLR 19/12 A3010 RMK AO2 SLP191 T01940122 $

Conditions at: KSPG observed 17 November 2017  12:53 UTC
Temperature: 18.3°C (65°F)
Dewpoint: 12.2°C (54°F) [RH = 68%]
Pressure (altimeter): 30.09 inches Hg (1019.0 mb)
[Sea-level pressure: 1018.8 mb]
Winds: from the NE (50 degrees) at 14 MPH (12 knots; 6.2 m/s)
Visibility: 10 or more miles (16+ km)
Ceiling: at least 12,000 feet AGL
Clouds: sky clear below 12,000 feet AGL
Present Weather:
SOME DATA ABOVE MAY BE INACCURATE!!!
"$" is an indication the sensor requires maintenance
KSPG 171253Z 05012KT 10SM CLR 18/12 A3009 RMK AO2 SLP188 T01830122 $

Conditions at: KSPG observed 17 November 2017  11:53 UTC
Temperature: 17.8°C (64°F)
Dewpoint: 11.7°C (53°F) [RH = 67%]
Pressure (altimeter): 30.07 inches Hg (1018.4 mb)
[Sea-level pressure: 1018.3 mb]
Winds: from the NE (40 degrees) at 12 MPH (10 knots; 5.2 m/s)
Visibility: 10 or more miles (16+ km)
Ceiling: at least 12,000 feet AGL
Clouds: sky clear below 12,000 feet AGL
Present Weather:
SOME DATA ABOVE MAY BE INACCURATE!!!
"$" is an indication the sensor requires maintenance
KSPG 171153Z 04010KT 10SM CLR 18/12 A3007 RMK AO2 SLP183 T01780117 10194 20178 53006 $

Conditions at: KSPG observed 17 November 2017  10:53 UTC
Temperature: 18.3°C (65°F)
Dewpoint: 11.7°C (53°F) [RH = 65%]
Pressure (altimeter): 30.06 inches Hg (1018.0 mb)
[Sea-level pressure: 1017.8 mb]
Winds: from the NE (50 degrees) at 14 MPH (12 knots; 6.2 m/s)
Visibility: 10 or more miles (16+ km)
Ceiling: at least 12,000 feet AGL
Clouds: sky clear below 12,000 feet AGL
Present Weather: automated observation with no human augmentation;
there may or may not be significant weather present at this time
KSPG 171053Z AUTO 05012KT 10SM CLR 18/12 A3006 RMK AO2 SLP178 T01830117

Conditions at: KSPG observed 17 November 2017  09:53 UTC
Temperature: 18.3°C (65°F)
Dewpoint: 12.2°C (54°F) [RH = 68%]
Pressure (altimeter): 30.05 inches Hg (1017.7 mb)
[Sea-level pressure: 1017.7 mb]
Winds: from the NE (40 degrees) at 10 MPH (9 knots; 4.7 m/s)
Visibility: 10 or more miles (16+ km)
Ceiling: at least 12,000 feet AGL
Clouds: sky clear below 12,000 feet AGL
Present Weather: automated observation with no human augmentation;
there may or may not be significant weather present at this time
KSPG 170953Z AUTO 04009KT 10SM CLR 18/12 A3005 RMK AO2 SLP177 T01830122

Conditions at: KSPG observed 17 November 2017  08:53 UTC
Temperature: 18.3°C (65°F)
Dewpoint: 12.8°C (55°F) [RH = 70%]
Pressure (altimeter): 30.06 inches Hg (1018.0 mb)
[Sea-level pressure: 1017.7 mb]
Winds: from the ENE (60 degrees) at 14 MPH (12 knots; 6.2 m/s)
Visibility: 10 or more miles (16+ km)
Ceiling: at least 12,000 feet AGL
Clouds: sky clear below 12,000 feet AGL
Present Weather: automated observation with no human augmentation;
there may or may not be significant weather present at this time
KSPG 170853Z AUTO 06012KT 10SM CLR 18/13 A3006 RMK AO2 SLP177 T01830128 57000

Conditions at: KSPG observed 17 November 2017  07:53 UTC
Temperature: 18.9°C (66°F)
Dewpoint: 13.3°C (56°F) [RH = 70%]
Pressure (altimeter): 30.06 inches Hg (1018.0 mb)
[Sea-level pressure: 1017.7 mb]
Winds: from the ENE (60 degrees) at 13 MPH (11 knots; 5.7 m/s)
Visibility: 10 or more miles (16+ km)
Ceiling: 4200 feet AGL
Clouds: overcast cloud deck at 4200 feet AGL
Present Weather: automated observation with no human augmentation;
there may or may not be significant weather present at this time
KSPG 170753Z AUTO 06011KT 10SM OVC042 19/13 A3006 RMK AO2 SLP177 T01890133

Conditions at: KSPG observed 17 November 2017  06:53 UTC
Temperature: 18.9°C (66°F)
Dewpoint: 12.2°C (54°F) [RH = 65%]
Pressure (altimeter): 30.06 inches Hg (1018.0 mb)
[Sea-level pressure: 1017.8 mb]
Winds: from the E (80 degrees) at 13 MPH (11 knots; 5.7 m/s)
Visibility: 10 or more miles (16+ km)
Ceiling: at least 12,000 feet AGL
Clouds: sky clear below 12,000 feet AGL
Present Weather: automated observation with no human augmentation;
there may or may not be significant weather present at this time
KSPG 170653Z AUTO 08011KT 10SM CLR 19/12 A3006 RMK AO2 SLP178 T01890122

Conditions at: KSPG observed 17 November 2017  05:53 UTC
Temperature: 19.4°C (67°F)
Dewpoint: 11.7°C (53°F) [RH = 61%]
Pressure (altimeter): 30.06 inches Hg (1018.0 mb)
[Sea-level pressure: 1017.8 mb]
Winds: from the ENE (70 degrees) at 14 MPH (12 knots; 6.2 m/s)
Visibility: 10 or more miles (16+ km)
Ceiling: at least 12,000 feet AGL
Clouds: sky clear below 12,000 feet AGL
Present Weather: automated observation with no human augmentation;
there may or may not be significant weather present at this time
KSPG 170553Z AUTO 07012KT 10SM CLR 19/12 A3006 RMK AO2 SLP178 T01940117 10200 20183 58000

Conditions at: KSPG observed 17 November 2017  04:53 UTC
Temperature: 19.4°C (67°F)
Dewpoint: 12.8°C (55°F) [RH = 66%]
Pressure (altimeter): 30.06 inches Hg (1018.0 mb)
[Sea-level pressure: 1018.0 mb]
Winds: from the NE (50 degrees) at 12 MPH (10 knots; 5.2 m/s)
Visibility: 10 or more miles (16+ km)
Ceiling: at least 12,000 feet AGL
Clouds: sky clear below 12,000 feet AGL
Present Weather: automated observation with no human augmentation;
there may or may not be significant weather present at this time
KSPG 170453Z AUTO 05010KT 10SM CLR 19/13 A3006 RMK AO2 SLP180 T01940128 402390167

Conditions at: KSPG observed 17 November 2017  03:53 UTC
Temperature: 18.9°C (66°F)
Dewpoint: 13.3°C (56°F) [RH = 70%]
Pressure (altimeter): 30.06 inches Hg (1018.0 mb)
[Sea-level pressure: 1017.9 mb]
Winds: from the N (10 degrees) at 7 MPH (6 knots; 3.1 m/s)
Visibility: 10 or more miles (16+ km)
Ceiling: at least 12,000 feet AGL
Clouds: sky clear below 12,000 feet AGL
Present Weather: automated observation with no human augmentation;
there may or may not be significant weather present at this time
KSPG 170353Z AUTO 01006KT 10SM CLR 19/13 A3006 RMK AO2 SLP179 T01890133

Conditions at: KSPG observed 17 November 2017  02:53 UTC
Temperature: 18.9°C (66°F)
Dewpoint: 13.3°C (56°F) [RH = 70%]
Pressure (altimeter): 30.06 inches Hg (1018.0 mb)
[Sea-level pressure: 1017.8 mb]
Winds: from the NNE (20 degrees) at 6 MPH (5 knots; 2.6 m/s)
Visibility: 10 or more miles (16+ km)
Ceiling: at least 12,000 feet AGL
Clouds: sky clear below 12,000 feet AGL
Present Weather: automated observation with no human augmentation;
there may or may not be significant weather present at this time
KSPG 170253Z AUTO 02005KT 10SM CLR 19/13 A3006 RMK AO2 SLP178 T01890133 53013

Conditions at: KSPG observed 17 November 2017  01:53 UTC
Temperature: 19.4°C (67°F)
Dewpoint: 13.3°C (56°F) [RH = 68%]
Pressure (altimeter): 30.05 inches Hg (1017.7 mb)
[Sea-level pressure: 1017.3 mb]
Winds: from the NNE (20 degrees) at 7 MPH (6 knots; 3.1 m/s)
Visibility: 10 or more miles (16+ km)
Ceiling: at least 12,000 feet AGL
Clouds: sky clear below 12,000 feet AGL
Present Weather: automated observation with no human augmentation;
there may or may not be significant weather present at this time
KSPG 170153Z AUTO 02006KT 10SM CLR 19/13 A3005 RMK AO2 SLP173 T01940133

Conditions at: KSPG observed 17 November 2017  00:53 UTC
Temperature: 19.4°C (67°F)
Dewpoint: 12.8°C (55°F) [RH = 66%]
Pressure (altimeter): 30.03 inches Hg (1017.0 mb)
[Sea-level pressure: 1016.9 mb]
Winds: from the N (360 degrees) at 7 MPH (6 knots; 3.1 m/s)
Visibility: 10 or more miles (16+ km)
Ceiling: at least 12,000 feet AGL
Clouds: sky clear below 12,000 feet AGL
Present Weather: no significant weather observed at this time
KSPG 170053Z 36006KT 10SM CLR 19/13 A3003 RMK AO2 SLP169 T01940128

Conditions at: KSPG observed 16 November 2017  23:53 UTC
Temperature: 20.0°C (68°F)
Dewpoint: 12.2°C (54°F) [RH = 61%]
Pressure (altimeter): 30.02 inches Hg (1016.7 mb)
[Sea-level pressure: 1016.4 mb]
Winds: from the N (350 degrees) at 9 MPH (8 knots; 4.2 m/s)
Visibility: 10 or more miles (16+ km)
Ceiling: at least 12,000 feet AGL
Clouds: sky clear below 12,000 feet AGL
Present Weather: no significant weather observed at this time
KSPG 162353Z 35008KT 10SM CLR 20/12 A3002 RMK AO2 SLP164 T02000122 10239 20200 53016

Conditions at: KSPG observed 16 November 2017  22:53 UTC
Temperature: 20.6°C (69°F)
Dewpoint: 13.3°C (56°F) [RH = 63%]
Pressure (altimeter): 30.00 inches Hg (1016.0 mb)
[Sea-level pressure: 1015.8 mb]
Winds: from the N (350 degrees) at 9 MPH (8 knots; 4.2 m/s)
Visibility: 10 or more miles (16+ km)
Ceiling: at least 12,000 feet AGL
Clouds: sky clear below 12,000 feet AGL
Present Weather: no significant weather observed at this time
KSPG 162253Z 35008KT 10SM CLR 21/13 A3000 RMK AO2 SLP158 T02060133

Conditions at: KSPG observed 16 November 2017  21:53 UTC
Temperature: 22.8°C (73°F)
Dewpoint: 13.9°C (57°F) [RH = 57%]
Pressure (altimeter): 29.98 inches Hg (1015.3 mb)
[Sea-level pressure: 1015.2 mb]
Winds: from the N (350 degrees) at 8 MPH (7 knots; 3.6 m/s)
Visibility: 10 or more miles (16+ km)
Ceiling: at least 12,000 feet AGL
Clouds: sky clear below 12,000 feet AGL
Present Weather: no significant weather observed at this time
KSPG 162153Z 35007KT 10SM CLR 23/14 A2998 RMK AO2 SLP152 T02280139

Conditions at: KSPG observed 16 November 2017  20:53 UTC
Temperature: 23.9°C (75°F)
Dewpoint: 13.3°C (56°F) [RH = 51%]
Pressure (altimeter): 29.97 inches Hg (1015.0 mb)
[Sea-level pressure: 1014.9 mb]
Winds: from the NNE (30 degrees) at 10 MPH (9 knots; 4.7 m/s)
Visibility: 10 or more miles (16+ km)
Ceiling: at least 12,000 feet AGL
Clouds: sky clear below 12,000 feet AGL
Present Weather: no significant weather observed at this time
KSPG 162053Z 03009KT 10SM CLR 24/13 A2997 RMK AO2 SLP149 T02390133 55008

Conditions at: KSPG observed 16 November 2017  19:53 UTC
Temperature: 23.3°C (74°F)
Dewpoint: 12.8°C (55°F) [RH = 52%]
Pressure (altimeter): 29.97 inches Hg (1015.0 mb)
[Sea-level pressure: 1014.8 mb]
Winds: from the NNE (30 degrees) at 9 MPH (8 knots; 4.2 m/s)
Visibility: 10 or more miles (16+ km)
Ceiling: at least 12,000 feet AGL
Clouds: sky clear below 12,000 feet AGL
Present Weather: no significant weather observed at this time
KSPG 161953Z 03008KT 10SM CLR 23/13 A2997 RMK AO2 SLP148 T02330128

Conditions at: KSPG observed 16 November 2017  18:53 UTC
Temperature: 22.8°C (73°F)
Dewpoint: 13.3°C (56°F) [RH = 55%]
Pressure (altimeter): 29.98 inches Hg (1015.3 mb)
[Sea-level pressure: 1015.1 mb]
Winds: from the NE (40 degrees) at 9 MPH (8 knots; 4.2 m/s)
Visibility: 10 or more miles (16+ km)
Ceiling: at least 12,000 feet AGL
Clouds: sky clear below 12,000 feet AGL
Present Weather: no significant weather observed at this time
KSPG 161853Z 04008KT 10SM CLR 23/13 A2998 RMK AO2 SLP151 T02280133

Conditions at: KSPG observed 16 November 2017  17:53 UTC
Temperature: 22.2°C (72°F)
Dewpoint: 14.4°C (58°F) [RH = 61%]
Pressure (altimeter): 30.00 inches Hg (1016.0 mb)
[Sea-level pressure: 1015.7 mb]
Winds: from the NNE (30 degrees) at 10 MPH (9 knots; 4.7 m/s)
Visibility: 10 or more miles (16+ km)
Ceiling: at least 12,000 feet AGL
Clouds: sky clear below 12,000 feet AGL
Present Weather: no significant weather observed at this time
KSPG 161753Z 03009KT 10SM CLR 22/14 A3000 RMK AO2 SLP157 T02220144 10222 20172 58023